Terminal Aerodrome Forecast
Issued by NWS

Home | Current Version | Previous Version | Text Only | Print | Product List | Glossary On
Versions: 1 2 3 4 5 6 7 8 9 10 11 12 13 14 15 16 17
000
FTUS41 KBGM 301100 RRA
TAFELM
TAF
KELM 301141Z 3012/3112 30010G20KT 5SM -SHSN OVC022
     FM301500 31015G25KT P6SM -SHSN OVC025
     FM310000 30010G20KT P6SM BKN035
     FM310600 30010KT P6SM SCT035=

USA.gov is the U.S. government's official web portal to all federal, state and local government web resources and services.